SEPTEMBER 23, 2014


METAR SMJP 230600Z 27001KT CAVOK 24/23 Q1011 NOSIG=